sensor_id;sensor_type;location;lat;lon;timestamp;P1;durP1;ratioP1;P2;durP2;ratioP2
15681;SDS011;7941;50.966;6.978;2022-09-24T00:01:24;10.40;;;9.50;;
15681;SDS011;7941;50.966;6.978;2022-09-24T00:03:52;11.17;;;9.33;;
15681;SDS011;7941;50.966;6.978;2022-09-24T00:06:18;10.27;;;8.97;;
15681;SDS011;7941;50.966;6.978;2022-09-24T00:08:45;9.97;;;8.80;;
15681;SDS011;7941;50.966;6.978;2022-09-24T00:11:12;10.93;;;9.40;;
15681;SDS011;7941;50.966;6.978;2022-09-24T00:13:39;11.20;;;9.67;;
15681;SDS011;7941;50.966;6.978;2022-09-24T00:16:09;12.33;;;9.37;;
15681;SDS011;7941;50.966;6.978;2022-09-24T00:18:36;12.90;;;9.87;;
15681;SDS011;7941;50.966;6.978;2022-09-24T00:21:13;10.43;;;9.43;;
15681;SDS011;7941;50.966;6.978;2022-09-24T00:23:39;12.97;;;9.33;;
15681;SDS011;7941;50.966;6.978;2022-09-24T00:26:05;10.40;;;9.07;;
15681;SDS011;7941;50.966;6.978;2022-09-24T00:28:51;10.63;;;9.20;;
15681;SDS011;7941;50.966;6.978;2022-09-24T00:31:17;10.30;;;9.23;;
15681;SDS011;7941;50.966;6.978;2022-09-24T00:33:43;13.13;;;8.73;;
15681;SDS011;7941;50.966;6.978;2022-09-24T00:36:09;10.30;;;9.23;;
15681;SDS011;7941;50.966;6.978;2022-09-24T00:38:35;9.90;;;8.90;;
15681;SDS011;7941;50.966;6.978;2022-09-24T00:41:02;12.50;;;9.40;;
15681;SDS011;7941;50.966;6.978;2022-09-24T00:46:13;9.87;;;8.83;;
15681;SDS011;7941;50.966;6.978;2022-09-24T00:48:42;10.93;;;9.70;;
15681;SDS011;7941;50.966;6.978;2022-09-24T00:51:09;10.23;;;9.17;;
15681;SDS011;7941;50.966;6.978;2022-09-24T00:53:38;10.27;;;9.20;;
15681;SDS011;7941;50.966;6.978;2022-09-24T00:56:04;12.17;;;9.67;;
15681;SDS011;7941;50.966;6.978;2022-09-24T00:58:33;10.87;;;9.10;;
15681;SDS011;7941;50.966;6.978;2022-09-24T01:01:03;11.10;;;9.30;;
15681;SDS011;7941;50.966;6.978;2022-09-24T01:03:31;10.77;;;9.77;;
15681;SDS011;7941;50.966;6.978;2022-09-24T01:05:58;10.43;;;9.10;;
15681;SDS011;7941;50.966;6.978;2022-09-24T01:08:25;11.17;;;10.00;;
15681;SDS011;7941;50.966;6.978;2022-09-24T01:13:28;10.00;;;9.00;;
15681;SDS011;7941;50.966;6.978;2022-09-24T01:15:59;10.50;;;9.50;;
15681;SDS011;7941;50.966;6.978;2022-09-24T01:31:40;11.67;;;9.87;;
15681;SDS011;7941;50.966;6.978;2022-09-24T01:34:11;11.07;;;9.33;;
15681;SDS011;7941;50.966;6.978;2022-09-24T01:36:39;10.67;;;9.63;;
15681;SDS011;7941;50.966;6.978;2022-09-24T01:39:06;12.43;;;10.40;;
15681;SDS011;7941;50.966;6.978;2022-09-24T01:41:34;10.73;;;9.17;;
15681;SDS011;7941;50.966;6.978;2022-09-24T01:44:01;11.27;;;9.47;;
15681;SDS011;7941;50.966;6.978;2022-09-24T01:46:30;10.50;;;9.43;;
15681;SDS011;7941;50.966;6.978;2022-09-24T01:48:57;10.03;;;9.03;;
15681;SDS011;7941;50.966;6.978;2022-09-24T01:51:34;11.37;;;10.30;;
15681;SDS011;7941;50.966;6.978;2022-09-24T01:54:04;11.80;;;9.57;;
15681;SDS011;7941;50.966;6.978;2022-09-24T01:59:04;10.83;;;9.73;;
15681;SDS011;7941;50.966;6.978;2022-09-24T02:01:33;11.23;;;10.07;;
15681;SDS011;7941;50.966;6.978;2022-09-24T02:04:00;10.40;;;9.37;;
15681;SDS011;7941;50.966;6.978;2022-09-24T02:06:32;10.33;;;8.83;;
15681;SDS011;7941;50.966;6.978;2022-09-24T02:09:00;10.37;;;8.90;;
15681;SDS011;7941;50.966;6.978;2022-09-24T02:11:26;10.57;;;9.50;;
15681;SDS011;7941;50.966;6.978;2022-09-24T02:16:25;9.63;;;8.73;;
15681;SDS011;7941;50.966;6.978;2022-09-24T02:18:53;10.43;;;8.63;;
15681;SDS011;7941;50.966;6.978;2022-09-24T02:21:22;10.00;;;8.87;;
15681;SDS011;7941;50.966;6.978;2022-09-24T02:24:11;12.67;;;9.27;;
15681;SDS011;7941;50.966;6.978;2022-09-24T02:26:35;9.27;;;8.37;;
15681;SDS011;7941;50.966;6.978;2022-09-24T02:29:01;10.17;;;9.13;;
15681;SDS011;7941;50.966;6.978;2022-09-24T02:31:29;12.33;;;8.87;;
15681;SDS011;7941;50.966;6.978;2022-09-24T02:33:56;10.23;;;8.73;;
15681;SDS011;7941;50.966;6.978;2022-09-24T02:36:42;10.60;;;9.37;;
15681;SDS011;7941;50.966;6.978;2022-09-24T02:39:08;11.07;;;8.40;;
15681;SDS011;7941;50.966;6.978;2022-09-24T02:41:34;10.20;;;9.00;;
15681;SDS011;7941;50.966;6.978;2022-09-24T02:44:01;10.13;;;9.13;;
15681;SDS011;7941;50.966;6.978;2022-09-24T02:46:27;8.93;;;8.03;;
15681;SDS011;7941;50.966;6.978;2022-09-24T02:48:53;10.00;;;8.50;;
15681;SDS011;7941;50.966;6.978;2022-09-24T02:51:19;10.43;;;9.27;;
15681;SDS011;7941;50.966;6.978;2022-09-24T02:53:46;14.43;;;8.77;;
15681;SDS011;7941;50.966;6.978;2022-09-24T02:56:12;11.40;;;9.63;;
15681;SDS011;7941;50.966;6.978;2022-09-24T02:58:38;10.07;;;8.83;;
15681;SDS011;7941;50.966;6.978;2022-09-24T03:01:04;10.30;;;9.23;;
15681;SDS011;7941;50.966;6.978;2022-09-24T03:03:31;10.83;;;9.70;;
15681;SDS011;7941;50.966;6.978;2022-09-24T03:05:57;10.70;;;9.63;;
15681;SDS011;7941;50.966;6.978;2022-09-24T03:08:23;10.73;;;9.63;;
15681;SDS011;7941;50.966;6.978;2022-09-24T03:10:49;10.43;;;9.43;;
15681;SDS011;7941;50.966;6.978;2022-09-24T03:13:16;11.70;;;9.87;;
15681;SDS011;7941;50.966;6.978;2022-09-24T03:15:46;10.80;;;9.87;;
15681;SDS011;7941;50.966;6.978;2022-09-24T03:18:12;12.77;;;9.97;;
15681;SDS011;7941;50.966;6.978;2022-09-24T03:20:38;11.30;;;9.63;;
15681;SDS011;7941;50.966;6.978;2022-09-24T03:23:05;11.50;;;10.30;;
15681;SDS011;7941;50.966;6.978;2022-09-24T03:25:31;11.37;;;10.27;;
15681;SDS011;7941;50.966;6.978;2022-09-24T03:27:57;11.53;;;10.43;;
15681;SDS011;7941;50.966;6.978;2022-09-24T03:30:24;11.97;;;10.97;;
15681;SDS011;7941;50.966;6.978;2022-09-24T03:33:09;11.63;;;10.53;;
15681;SDS011;7941;50.966;6.978;2022-09-24T03:35:35;12.07;;;10.87;;
15681;SDS011;7941;50.966;6.978;2022-09-24T03:38:01;11.57;;;10.47;;
15681;SDS011;7941;50.966;6.978;2022-09-24T03:40:27;11.40;;;10.30;;
15681;SDS011;7941;50.966;6.978;2022-09-24T03:42:53;12.70;;;10.70;;
15681;SDS011;7941;50.966;6.978;2022-09-24T03:45:19;11.23;;;10.13;;
15681;SDS011;7941;50.966;6.978;2022-09-24T03:47:45;13.83;;;9.87;;
15681;SDS011;7941;50.966;6.978;2022-09-24T03:50:12;11.87;;;10.13;;
15681;SDS011;7941;50.966;6.978;2022-09-24T03:52:38;10.40;;;9.40;;
15681;SDS011;7941;50.966;6.978;2022-09-24T03:55:04;11.13;;;10.13;;
15681;SDS011;7941;50.966;6.978;2022-09-24T03:57:31;11.50;;;10.23;;
15681;SDS011;7941;50.966;6.978;2022-09-24T03:59:57;11.00;;;10.07;;
15681;SDS011;7941;50.966;6.978;2022-09-24T04:02:23;12.17;;;9.60;;
15681;SDS011;7941;50.966;6.978;2022-09-24T04:04:49;11.37;;;10.27;;
15681;SDS011;7941;50.966;6.978;2022-09-24T04:07:16;11.07;;;10.07;;
15681;SDS011;7941;50.966;6.978;2022-09-24T04:09:42;11.33;;;10.23;;
15681;SDS011;7941;50.966;6.978;2022-09-24T04:12:08;11.30;;;10.13;;
15681;SDS011;7941;50.966;6.978;2022-09-24T04:14:35;11.63;;;10.53;;
15681;SDS011;7941;50.966;6.978;2022-09-24T04:17:01;12.17;;;10.27;;
15681;SDS011;7941;50.966;6.978;2022-09-24T04:19:27;11.50;;;10.30;;
15681;SDS011;7941;50.966;6.978;2022-09-24T04:21:56;10.67;;;9.50;;
15681;SDS011;7941;50.966;6.978;2022-09-24T04:24:22;11.20;;;9.93;;
15681;SDS011;7941;50.966;6.978;2022-09-24T04:26:48;12.20;;;10.20;;
15681;SDS011;7941;50.966;6.978;2022-09-24T04:29:15;12.10;;;9.80;;
15681;SDS011;7941;50.966;6.978;2022-09-24T04:31:41;11.20;;;10.20;;
15681;SDS011;7941;50.966;6.978;2022-09-24T04:34:07;11.07;;;9.80;;
15681;SDS011;7941;50.966;6.978;2022-09-24T04:36:34;11.93;;;10.80;;
15681;SDS011;7941;50.966;6.978;2022-09-24T04:39:00;15.67;;;10.30;;
15681;SDS011;7941;50.966;6.978;2022-09-24T04:41:27;13.03;;;11.20;;
15681;SDS011;7941;50.966;6.978;2022-09-24T04:43:53;13.10;;;10.50;;
15681;SDS011;7941;50.966;6.978;2022-09-24T04:46:21;14.03;;;10.30;;
15681;SDS011;7941;50.966;6.978;2022-09-24T04:48:47;11.10;;;10.00;;
15681;SDS011;7941;50.966;6.978;2022-09-24T04:51:14;10.83;;;9.83;;
15681;SDS011;7941;50.966;6.978;2022-09-24T04:53:43;11.47;;;10.47;;
15681;SDS011;7941;50.966;6.978;2022-09-24T04:56:12;12.33;;;11.10;;
15681;SDS011;7941;50.966;6.978;2022-09-24T04:58:38;12.17;;;10.97;;
15681;SDS011;7941;50.966;6.978;2022-09-24T05:01:04;11.30;;;9.73;;
15681;SDS011;7941;50.966;6.978;2022-09-24T05:03:31;11.53;;;9.03;;
15681;SDS011;7941;50.966;6.978;2022-09-24T05:05:57;10.77;;;9.77;;
15681;SDS011;7941;50.966;6.978;2022-09-24T05:08:23;10.77;;;9.67;;
15681;SDS011;7941;50.966;6.978;2022-09-24T05:10:50;11.20;;;10.03;;
15681;SDS011;7941;50.966;6.978;2022-09-24T05:13:18;10.87;;;9.73;;
15681;SDS011;7941;50.966;6.978;2022-09-24T05:15:44;11.03;;;10.00;;
15681;SDS011;7941;50.966;6.978;2022-09-24T05:18:10;10.57;;;9.60;;
15681;SDS011;7941;50.966;6.978;2022-09-24T05:20:36;11.30;;;10.07;;
15681;SDS011;7941;50.966;6.978;2022-09-24T05:23:02;10.63;;;9.57;;
15681;SDS011;7941;50.966;6.978;2022-09-24T05:25:29;10.83;;;9.83;;
15681;SDS011;7941;50.966;6.978;2022-09-24T05:27:55;10.73;;;9.83;;
15681;SDS011;7941;50.966;6.978;2022-09-24T05:30:22;11.00;;;10.00;;
15681;SDS011;7941;50.966;6.978;2022-09-24T05:32:48;11.37;;;10.27;;
15681;SDS011;7941;50.966;6.978;2022-09-24T05:35:20;11.83;;;10.13;;
15681;SDS011;7941;50.966;6.978;2022-09-24T05:37:46;10.70;;;9.83;;
15681;SDS011;7941;50.966;6.978;2022-09-24T05:40:17;10.83;;;9.23;;
15681;SDS011;7941;50.966;6.978;2022-09-24T05:43:02;14.07;;;10.43;;
15681;SDS011;7941;50.966;6.978;2022-09-24T05:45:29;11.30;;;9.63;;
15681;SDS011;7941;50.966;6.978;2022-09-24T05:47:56;11.40;;;9.53;;
15681;SDS011;7941;50.966;6.978;2022-09-24T05:50:23;10.83;;;9.70;;
15681;SDS011;7941;50.966;6.978;2022-09-24T05:52:50;12.10;;;9.37;;
15681;SDS011;7941;50.966;6.978;2022-09-24T05:55:16;14.17;;;10.53;;
15681;SDS011;7941;50.966;6.978;2022-09-24T05:57:42;12.90;;;11.70;;
15681;SDS011;7941;50.966;6.978;2022-09-24T06:00:08;12.77;;;11.03;;
15681;SDS011;7941;50.966;6.978;2022-09-24T06:02:34;11.37;;;10.33;;
15681;SDS011;7941;50.966;6.978;2022-09-24T06:05:01;11.27;;;9.80;;
15681;SDS011;7941;50.966;6.978;2022-09-24T06:07:27;10.57;;;8.57;;
15681;SDS011;7941;50.966;6.978;2022-09-24T06:09:53;11.67;;;10.57;;
15681;SDS011;7941;50.966;6.978;2022-09-24T06:12:19;11.83;;;10.10;;
15681;SDS011;7941;50.966;6.978;2022-09-24T06:14:46;11.83;;;9.67;;
15681;SDS011;7941;50.966;6.978;2022-09-24T06:17:12;9.57;;;8.67;;
15681;SDS011;7941;50.966;6.978;2022-09-24T06:19:38;10.07;;;9.07;;
15681;SDS011;7941;50.966;6.978;2022-09-24T06:22:04;11.37;;;10.17;;
15681;SDS011;7941;50.966;6.978;2022-09-24T06:24:31;10.53;;;9.60;;
15681;SDS011;7941;50.966;6.978;2022-09-24T06:26:57;15.90;;;10.17;;
15681;SDS011;7941;50.966;6.978;2022-09-24T06:29:23;11.20;;;9.63;;
15681;SDS011;7941;50.966;6.978;2022-09-24T06:31:49;12.17;;;9.30;;
15681;SDS011;7941;50.966;6.978;2022-09-24T06:34:17;9.70;;;8.90;;
15681;SDS011;7941;50.966;6.978;2022-09-24T06:36:44;9.30;;;8.40;;
15681;SDS011;7941;50.966;6.978;2022-09-24T06:39:10;10.00;;;8.83;;
15681;SDS011;7941;50.966;6.978;2022-09-24T06:41:36;10.17;;;9.27;;
15681;SDS011;7941;50.966;6.978;2022-09-24T06:44:02;9.77;;;8.87;;
15681;SDS011;7941;50.966;6.978;2022-09-24T06:46:28;12.60;;;9.03;;
15681;SDS011;7941;50.966;6.978;2022-09-24T06:48:54;10.23;;;9.20;;
15681;SDS011;7941;50.966;6.978;2022-09-24T06:51:21;10.63;;;9.70;;
15681;SDS011;7941;50.966;6.978;2022-09-24T06:53:50;11.03;;;9.93;;
15681;SDS011;7941;50.966;6.978;2022-09-24T06:56:17;12.17;;;9.43;;
15681;SDS011;7941;50.966;6.978;2022-09-24T06:58:43;12.80;;;9.47;;
15681;SDS011;7941;50.966;6.978;2022-09-24T07:01:10;10.97;;;9.50;;
15681;SDS011;7941;50.966;6.978;2022-09-24T07:03:36;10.60;;;9.10;;
15681;SDS011;7941;50.966;6.978;2022-09-24T07:06:04;10.57;;;9.53;;
15681;SDS011;7941;50.966;6.978;2022-09-24T07:08:30;11.70;;;9.77;;
15681;SDS011;7941;50.966;6.978;2022-09-24T07:10:56;11.87;;;10.70;;
15681;SDS011;7941;50.966;6.978;2022-09-24T07:13:24;11.47;;;10.33;;
15681;SDS011;7941;50.966;6.978;2022-09-24T07:15:50;12.80;;;10.93;;
15681;SDS011;7941;50.966;6.978;2022-09-24T07:18:17;11.30;;;10.20;;
15681;SDS011;7941;50.966;6.978;2022-09-24T07:20:43;12.43;;;10.57;;
15681;SDS011;7941;50.966;6.978;2022-09-24T07:23:10;11.10;;;10.00;;
15681;SDS011;7941;50.966;6.978;2022-09-24T07:25:37;16.40;;;10.97;;
15681;SDS011;7941;50.966;6.978;2022-09-24T07:28:04;11.93;;;10.67;;
15681;SDS011;7941;50.966;6.978;2022-09-24T07:30:31;12.50;;;11.27;;
15681;SDS011;7941;50.966;6.978;2022-09-24T07:32:58;12.30;;;11.00;;
15681;SDS011;7941;50.966;6.978;2022-09-24T07:35:24;11.30;;;10.30;;
15681;SDS011;7941;50.966;6.978;2022-09-24T07:40:23;13.27;;;10.67;;
15681;SDS011;7941;50.966;6.978;2022-09-24T07:42:50;11.57;;;10.37;;
15681;SDS011;7941;50.966;6.978;2022-09-24T07:45:18;11.53;;;10.33;;
15681;SDS011;7941;50.966;6.978;2022-09-24T07:47:44;11.47;;;10.30;;
15681;SDS011;7941;50.966;6.978;2022-09-24T07:50:10;10.93;;;9.93;;
15681;SDS011;7941;50.966;6.978;2022-09-24T07:52:38;11.17;;;9.80;;
15681;SDS011;7941;50.966;6.978;2022-09-24T07:55:04;11.83;;;9.67;;
15681;SDS011;7941;50.966;6.978;2022-09-24T07:57:30;11.10;;;9.90;;
15681;SDS011;7941;50.966;6.978;2022-09-24T07:59:57;11.17;;;9.83;;
15681;SDS011;7941;50.966;6.978;2022-09-24T08:02:24;13.30;;;10.47;;
15681;SDS011;7941;50.966;6.978;2022-09-24T08:04:50;11.57;;;9.93;;
15681;SDS011;7941;50.966;6.978;2022-09-24T08:07:16;12.67;;;9.63;;
15681;SDS011;7941;50.966;6.978;2022-09-24T08:09:43;11.73;;;9.40;;
15681;SDS011;7941;50.966;6.978;2022-09-24T08:12:09;10.27;;;9.37;;
15681;SDS011;7941;50.966;6.978;2022-09-24T08:14:36;10.07;;;9.03;;
15681;SDS011;7941;50.966;6.978;2022-09-24T08:17:02;12.47;;;9.53;;
15681;SDS011;7941;50.966;6.978;2022-09-24T08:19:29;12.50;;;9.47;;
15681;SDS011;7941;50.966;6.978;2022-09-24T08:21:55;10.60;;;9.50;;
15681;SDS011;7941;50.966;6.978;2022-09-24T08:24:22;10.00;;;9.10;;
15681;SDS011;7941;50.966;6.978;2022-09-24T08:26:48;11.27;;;10.20;;
15681;SDS011;7941;50.966;6.978;2022-09-24T08:29:14;11.23;;;10.13;;
15681;SDS011;7941;50.966;6.978;2022-09-24T08:31:41;10.93;;;9.23;;
15681;SDS011;7941;50.966;6.978;2022-09-24T08:34:07;9.23;;;8.43;;
15681;SDS011;7941;50.966;6.978;2022-09-24T08:36:33;9.73;;;8.83;;
15681;SDS011;7941;50.966;6.978;2022-09-24T08:38:59;9.47;;;8.50;;
15681;SDS011;7941;50.966;6.978;2022-09-24T08:41:32;9.20;;;8.40;;
15681;SDS011;7941;50.966;6.978;2022-09-24T08:44:04;10.70;;;8.83;;
15681;SDS011;7941;50.966;6.978;2022-09-24T08:46:33;10.15;;;9.15;;
15681;SDS011;7941;50.966;6.978;2022-09-24T08:49:20;10.10;;;9.13;;
15681;SDS011;7941;50.966;6.978;2022-09-24T08:52:00;12.90;;;8.87;;
15681;SDS011;7941;50.966;6.978;2022-09-24T08:54:28;10.27;;;9.37;;
15681;SDS011;7941;50.966;6.978;2022-09-24T08:56:55;12.03;;;9.30;;
15681;SDS011;7941;50.966;6.978;2022-09-24T08:59:27;10.20;;;9.10;;
15681;SDS011;7941;50.966;6.978;2022-09-24T09:02:01;11.60;;;9.80;;
15681;SDS011;7941;50.966;6.978;2022-09-24T09:12:13;11.93;;;10.83;;
15681;SDS011;7941;50.966;6.978;2022-09-24T09:14:42;14.20;;;12.17;;
15681;SDS011;7941;50.966;6.978;2022-09-24T09:17:16;12.67;;;11.37;;
15681;SDS011;7941;50.966;6.978;2022-09-24T09:19:47;14.30;;;12.90;;
15681;SDS011;7941;50.966;6.978;2022-09-24T09:22:17;14.80;;;12.33;;
15681;SDS011;7941;50.966;6.978;2022-09-24T09:24:51;14.27;;;12.63;;
15681;SDS011;7941;50.966;6.978;2022-09-24T09:27:18;13.90;;;12.50;;
15681;SDS011;7941;50.966;6.978;2022-09-24T09:29:46;14.43;;;13.03;;
15681;SDS011;7941;50.966;6.978;2022-09-24T09:37:47;16.03;;;14.37;;
15681;SDS011;7941;50.966;6.978;2022-09-24T09:40:35;17.77;;;14.50;;
15681;SDS011;7941;50.966;6.978;2022-09-24T09:43:08;17.43;;;14.90;;
15681;SDS011;7941;50.966;6.978;2022-09-24T09:45:54;16.27;;;14.57;;
15681;SDS011;7941;50.966;6.978;2022-09-24T09:48:23;16.57;;;14.70;;
15681;SDS011;7941;50.966;6.978;2022-09-24T09:50:51;16.93;;;15.10;;
15681;SDS011;7941;50.966;6.978;2022-09-24T09:53:25;15.87;;;14.17;;
15681;SDS011;7941;50.966;6.978;2022-09-24T09:55:55;15.20;;;13.80;;
15681;SDS011;7941;50.966;6.978;2022-09-24T09:58:22;15.37;;;13.77;;
15681;SDS011;7941;50.966;6.978;2022-09-24T10:00:50;16.03;;;14.43;;
15681;SDS011;7941;50.966;6.978;2022-09-24T10:05:53;16.93;;;14.50;;
15681;SDS011;7941;50.966;6.978;2022-09-24T10:08:23;15.70;;;14.17;;
15681;SDS011;7941;50.966;6.978;2022-09-24T10:10:59;18.50;;;16.60;;
15681;SDS011;7941;50.966;6.978;2022-09-24T10:13:27;17.47;;;15.23;;
15681;SDS011;7941;50.966;6.978;2022-09-24T10:15:56;19.53;;;15.13;;
15681;SDS011;7941;50.966;6.978;2022-09-24T10:18:27;17.00;;;15.40;;
15681;SDS011;7941;50.966;6.978;2022-09-24T10:20:55;17.20;;;15.70;;
15681;SDS011;7941;50.966;6.978;2022-09-24T10:23:27;18.10;;;16.30;;
15681;SDS011;7941;50.966;6.978;2022-09-24T10:25:59;19.33;;;17.07;;
15681;SDS011;7941;50.966;6.978;2022-09-24T10:28:25;20.97;;;17.43;;
15681;SDS011;7941;50.966;6.978;2022-09-24T10:31:12;18.20;;;16.40;;
15681;SDS011;7941;50.966;6.978;2022-09-24T10:33:39;20.63;;;17.07;;
15681;SDS011;7941;50.966;6.978;2022-09-24T10:36:11;19.87;;;17.97;;
15681;SDS011;7941;50.966;6.978;2022-09-24T10:38:39;21.33;;;18.63;;
15681;SDS011;7941;50.966;6.978;2022-09-24T10:41:14;21.00;;;18.83;;
15681;SDS011;7941;50.966;6.978;2022-09-24T10:43:51;21.80;;;19.57;;
15681;SDS011;7941;50.966;6.978;2022-09-24T10:48:50;22.77;;;20.37;;
15681;SDS011;7941;50.966;6.978;2022-09-24T10:51:23;23.57;;;21.37;;
15681;SDS011;7941;50.966;6.978;2022-09-24T10:56:46;24.73;;;21.13;;
15681;SDS011;7941;50.966;6.978;2022-09-24T11:09:24;22.33;;;20.30;;
15681;SDS011;7941;50.966;6.978;2022-09-24T11:12:09;21.80;;;19.70;;
15681;SDS011;7941;50.966;6.978;2022-09-24T11:19:42;21.87;;;18.60;;
15681;SDS011;7941;50.966;6.978;2022-09-24T11:22:15;20.93;;;18.83;;
15681;SDS011;7941;50.966;6.978;2022-09-24T11:34:53;21.50;;;19.07;;
15681;SDS011;7941;50.966;6.978;2022-09-24T11:37:35;20.33;;;18.40;;
15681;SDS011;7941;50.966;6.978;2022-09-24T11:42:32;19.27;;;17.23;;
15681;SDS011;7941;50.966;6.978;2022-09-24T11:47:47;20.00;;;17.90;;
15681;SDS011;7941;50.966;6.978;2022-09-24T11:52:53;19.20;;;17.20;;
15681;SDS011;7941;50.966;6.978;2022-09-24T11:57:49;28.07;;;25.33;;
15681;SDS011;7941;50.966;6.978;2022-09-24T12:00:18;20.13;;;18.03;;
15681;SDS011;7941;50.966;6.978;2022-09-24T12:05:36;18.67;;;16.77;;
15681;SDS011;7941;50.966;6.978;2022-09-24T12:10:48;19.60;;;17.30;;
15681;SDS011;7941;50.966;6.978;2022-09-24T12:16:06;18.67;;;16.67;;
15681;SDS011;7941;50.966;6.978;2022-09-24T12:19:16;18.97;;;16.97;;
15681;SDS011;7941;50.966;6.978;2022-09-24T12:21:33;17.37;;;15.57;;
15681;SDS011;7941;50.966;6.978;2022-09-24T12:26:40;15.93;;;14.40;;
15681;SDS011;7941;50.966;6.978;2022-09-24T12:37:27;13.70;;;12.40;;
15681;SDS011;7941;50.966;6.978;2022-09-24T12:42:53;13.67;;;12.27;;
15681;SDS011;7941;50.966;6.978;2022-09-24T12:45:19;13.97;;;12.47;;
15681;SDS011;7941;50.966;6.978;2022-09-24T12:47:53;14.67;;;11.93;;
15681;SDS011;7941;50.966;6.978;2022-09-24T12:50:21;13.60;;;11.83;;
15681;SDS011;7941;50.966;6.978;2022-09-24T12:52:48;14.13;;;12.67;;
15681;SDS011;7941;50.966;6.978;2022-09-24T12:55:24;13.43;;;12.03;;
15681;SDS011;7941;50.966;6.978;2022-09-24T12:57:58;12.80;;;11.60;;
15681;SDS011;7941;50.966;6.978;2022-09-24T13:00:36;14.57;;;11.60;;
15681;SDS011;7941;50.966;6.978;2022-09-24T13:03:03;13.40;;;12.10;;
15681;SDS011;7941;50.966;6.978;2022-09-24T13:05:45;13.40;;;11.83;;
15681;SDS011;7941;50.966;6.978;2022-09-24T13:10:38;12.63;;;11.47;;
15681;SDS011;7941;50.966;6.978;2022-09-24T13:13:21;12.43;;;10.90;;
15681;SDS011;7941;50.966;6.978;2022-09-24T13:15:57;14.37;;;12.20;;
15681;SDS011;7941;50.966;6.978;2022-09-24T13:18:25;13.20;;;11.83;;
15681;SDS011;7941;50.966;6.978;2022-09-24T13:21:01;13.33;;;11.27;;
15681;SDS011;7941;50.966;6.978;2022-09-24T13:23:32;14.53;;;11.43;;
15681;SDS011;7941;50.966;6.978;2022-09-24T13:26:07;12.53;;;11.17;;
15681;SDS011;7941;50.966;6.978;2022-09-24T13:33:30;12.97;;;11.67;;
15681;SDS011;7941;50.966;6.978;2022-09-24T13:36:12;12.87;;;11.67;;
15681;SDS011;7941;50.966;6.978;2022-09-24T13:38:45;11.23;;;10.17;;
15681;SDS011;7941;50.966;6.978;2022-09-24T13:41:32;10.83;;;9.83;;
15681;SDS011;7941;50.966;6.978;2022-09-24T13:46:48;11.20;;;9.97;;
15681;SDS011;7941;50.966;6.978;2022-09-24T13:49:16;11.53;;;9.80;;
15681;SDS011;7941;50.966;6.978;2022-09-24T13:51:44;12.00;;;10.67;;
15681;SDS011;7941;50.966;6.978;2022-09-24T13:56:41;11.13;;;9.90;;
15681;SDS011;7941;50.966;6.978;2022-09-24T13:59:11;11.90;;;10.70;;
15681;SDS011;7941;50.966;6.978;2022-09-24T14:01:39;12.33;;;11.03;;
15681;SDS011;7941;50.966;6.978;2022-09-24T14:04:12;12.30;;;11.10;;
15681;SDS011;7941;50.966;6.978;2022-09-24T14:06:41;12.27;;;10.63;;
15681;SDS011;7941;50.966;6.978;2022-09-24T14:09:41;11.63;;;10.43;;
15681;SDS011;7941;50.966;6.978;2022-09-24T14:12:22;11.90;;;10.67;;
15681;SDS011;7941;50.966;6.978;2022-09-24T14:14:51;12.33;;;10.63;;
15681;SDS011;7941;50.966;6.978;2022-09-24T14:17:19;11.77;;;10.67;;
15681;SDS011;7941;50.966;6.978;2022-09-24T14:19:46;12.13;;;10.20;;
15681;SDS011;7941;50.966;6.978;2022-09-24T14:22:20;11.63;;;10.53;;
15681;SDS011;7941;50.966;6.978;2022-09-24T14:27:13;12.07;;;10.83;;
15681;SDS011;7941;50.966;6.978;2022-09-24T14:29:43;11.70;;;10.67;;
15681;SDS011;7941;50.966;6.978;2022-09-24T14:32:24;11.73;;;10.50;;
15681;SDS011;7941;50.966;6.978;2022-09-24T14:34:52;13.33;;;10.87;;
15681;SDS011;7941;50.966;6.978;2022-09-24T14:39:46;12.20;;;11.10;;
15681;SDS011;7941;50.966;6.978;2022-09-24T14:42:20;12.97;;;11.60;;
15681;SDS011;7941;50.966;6.978;2022-09-24T14:44:47;12.63;;;10.97;;
15681;SDS011;7941;50.966;6.978;2022-09-24T14:47:24;13.13;;;11.83;;
15681;SDS011;7941;50.966;6.978;2022-09-24T14:49:51;13.97;;;12.57;;
15681;SDS011;7941;50.966;6.978;2022-09-24T14:52:25;12.80;;;11.60;;
15681;SDS011;7941;50.966;6.978;2022-09-24T14:55:02;13.57;;;12.30;;
15681;SDS011;7941;50.966;6.978;2022-09-24T14:57:36;13.03;;;11.73;;
15681;SDS011;7941;50.966;6.978;2022-09-24T15:00:17;14.40;;;12.60;;
15681;SDS011;7941;50.966;6.978;2022-09-24T15:02:45;13.30;;;11.90;;
15681;SDS011;7941;50.966;6.978;2022-09-24T15:05:12;13.57;;;12.23;;
15681;SDS011;7941;50.966;6.978;2022-09-24T15:07:38;13.97;;;12.20;;
15681;SDS011;7941;50.966;6.978;2022-09-24T15:10:05;13.70;;;12.50;;
15681;SDS011;7941;50.966;6.978;2022-09-24T15:12:32;12.53;;;11.27;;
15681;SDS011;7941;50.966;6.978;2022-09-24T15:15:00;15.57;;;11.90;;
15681;SDS011;7941;50.966;6.978;2022-09-24T15:17:31;13.43;;;12.10;;
15681;SDS011;7941;50.966;6.978;2022-09-24T15:19:57;12.93;;;11.63;;
15681;SDS011;7941;50.966;6.978;2022-09-24T15:22:24;13.90;;;12.40;;
15681;SDS011;7941;50.966;6.978;2022-09-24T15:24:54;12.93;;;11.77;;
15681;SDS011;7941;50.966;6.978;2022-09-24T15:27:22;15.60;;;14.10;;
15681;SDS011;7941;50.966;6.978;2022-09-24T15:29:50;16.07;;;12.67;;
15681;SDS011;7941;50.966;6.978;2022-09-24T15:32:18;13.70;;;11.93;;
15681;SDS011;7941;50.966;6.978;2022-09-24T15:34:45;14.20;;;12.67;;
15681;SDS011;7941;50.966;6.978;2022-09-24T15:37:12;13.17;;;11.90;;
15681;SDS011;7941;50.966;6.978;2022-09-24T15:39:39;13.37;;;12.10;;
15681;SDS011;7941;50.966;6.978;2022-09-24T15:42:13;12.97;;;11.60;;
15681;SDS011;7941;50.966;6.978;2022-09-24T15:44:39;17.27;;;13.37;;
15681;SDS011;7941;50.966;6.978;2022-09-24T15:47:05;14.10;;;12.60;;
15681;SDS011;7941;50.966;6.978;2022-09-24T15:49:31;13.20;;;11.87;;
15681;SDS011;7941;50.966;6.978;2022-09-24T15:52:01;13.70;;;12.33;;
15681;SDS011;7941;50.966;6.978;2022-09-24T15:54:30;13.40;;;12.20;;
15681;SDS011;7941;50.966;6.978;2022-09-24T15:56:56;15.80;;;13.13;;
15681;SDS011;7941;50.966;6.978;2022-09-24T15:59:23;14.40;;;12.10;;
15681;SDS011;7941;50.966;6.978;2022-09-24T16:01:50;15.37;;;12.97;;
15681;SDS011;7941;50.966;6.978;2022-09-24T16:04:16;13.77;;;12.47;;
15681;SDS011;7941;50.966;6.978;2022-09-24T16:06:43;16.87;;;13.10;;
15681;SDS011;7941;50.966;6.978;2022-09-24T16:09:09;14.97;;;13.27;;
15681;SDS011;7941;50.966;6.978;2022-09-24T16:11:35;17.07;;;14.47;;
15681;SDS011;7941;50.966;6.978;2022-09-24T16:14:02;15.17;;;13.57;;
15681;SDS011;7941;50.966;6.978;2022-09-24T16:16:29;15.20;;;12.77;;
15681;SDS011;7941;50.966;6.978;2022-09-24T16:18:56;14.97;;;13.37;;
15681;SDS011;7941;50.966;6.978;2022-09-24T16:21:22;14.47;;;12.97;;
15681;SDS011;7941;50.966;6.978;2022-09-24T16:23:54;14.83;;;13.30;;
15681;SDS011;7941;50.966;6.978;2022-09-24T16:26:21;15.10;;;13.50;;
15681;SDS011;7941;50.966;6.978;2022-09-24T16:28:47;16.20;;;14.43;;
15681;SDS011;7941;50.966;6.978;2022-09-24T16:31:16;15.63;;;14.03;;
15681;SDS011;7941;50.966;6.978;2022-09-24T16:33:43;15.50;;;13.97;;
15681;SDS011;7941;50.966;6.978;2022-09-24T16:36:09;16.87;;;15.07;;
15681;SDS011;7941;50.966;6.978;2022-09-24T16:38:36;16.27;;;14.63;;
15681;SDS011;7941;50.966;6.978;2022-09-24T16:41:03;15.10;;;13.60;;
15681;SDS011;7941;50.966;6.978;2022-09-24T16:43:29;15.03;;;13.43;;
15681;SDS011;7941;50.966;6.978;2022-09-24T16:46:02;15.90;;;14.30;;
15681;SDS011;7941;50.966;6.978;2022-09-24T16:48:29;14.63;;;13.23;;
15681;SDS011;7941;50.966;6.978;2022-09-24T16:51:05;14.90;;;13.40;;
15681;SDS011;7941;50.966;6.978;2022-09-24T16:53:31;14.07;;;12.80;;